Time;durP1;ratioP1;P1;durP2;ratioP2;P2;SDS_P1;SDS_P2;PMS_P1;PMS_P2;Temp;Humidity;BMP_temperature;BMP_pressure;BME280_temperature;BME280_humidity;BME280_pressure;Samples;Min_cycle;Max_cycle;Signal;HPM_P1;HPM_P2
2022/08/26 00:00:32;;;;;;;10.07;5.45;;;;;;;19.97;83.20;101401.44;5066987;28;20032;-65
2022/08/26 00:02:57;;;;;;;11.38;6.03;;;;;;;19.94;84.70;101410.03;5068697;28;20435;-65
2022/08/26 00:05:23;;;;;;;11.63;5.75;;;;;;;19.97;83.36;101401.44;5068123;28;20045;-65
2022/08/26 00:07:48;;;;;;;17.67;7.15;;;;;;;19.93;84.57;101400.00;5068478;28;20153;-65
2022/08/26 00:10:14;;;;;;;18.45;6.35;;;;;;;19.91;83.98;101398.44;5067792;28;20396;-64
2022/08/26 00:12:39;;;;;;;14.25;7.60;;;;;;;19.85;84.16;101398.03;5068714;28;20103;-68
2022/08/26 00:15:07;;;;;;;16.00;8.52;;;;;;;19.77;85.75;101403.50;5066402;28;20121;-65
2022/08/26 00:17:33;;;;;;;18.65;9.02;;;;;;;19.72;85.64;101399.44;5066964;28;20703;-65
2022/08/26 00:19:59;;;;;;;15.32;9.35;;;;;;;19.69;85.62;101411.69;5068583;28;20205;-65
2022/08/26 00:22:25;;;;;;;19.52;9.60;;;;;;;19.67;85.47;101410.09;5065965;28;20044;-65
2022/08/26 00:24:50;;;;;;;22.25;9.50;;;;;;;19.64;85.87;101411.28;5067167;28;20041;-70
2022/08/26 00:27:15;;;;;;;20.15;10.27;;;;;;;19.63;86.13;101412.28;5069104;28;20047;-64
2022/08/26 00:29:41;;;;;;;13.88;9.18;;;;;;;19.61;85.53;101408.84;5066084;28;20055;-64
2022/08/26 00:32:06;;;;;;;18.20;10.50;;;;;;;19.57;86.66;101410.13;5067462;28;20035;-64
2022/08/26 00:34:32;;;;;;;19.58;11.02;;;;;;;19.53;86.45;101406.81;5068626;28;20111;-65
2022/08/26 00:36:57;;;;;;;20.50;10.27;;;;;;;19.53;85.67;101405.94;5066642;28;20044;-66
2022/08/26 00:39:23;;;;;;;18.60;9.85;;;;;;;19.53;85.33;101408.72;5066588;28;20047;-64
2022/08/26 00:41:49;;;;;;;17.60;10.63;;;;;;;19.54;85.49;101404.94;5070377;28;20104;-64
2022/08/26 00:44:15;;;;;;;18.20;10.82;;;;;;;19.51;85.73;101413.53;5084238;28;20384;-64
2022/08/26 00:46:44;;;;;;;18.63;9.98;;;;;;;19.54;85.79;101411.34;5067176;28;20062;-64
2022/08/26 00:49:18;;;;;;;17.70;9.50;;;;;;;19.56;85.33;101414.78;5081272;28;20028;-65
2022/08/26 00:51:51;;;;;;;16.35;9.05;;;;;;;19.56;85.24;101419.44;5054389;28;20032;-64
2022/08/26 00:54:19;;;;;;;19.98;9.93;;;;;;;19.52;85.97;101413.38;5062333;28;20113;-64
2022/08/26 00:56:52;;;;;;;16.13;10.05;;;;;;;19.54;85.42;101410.47;5048117;28;20033;-65
2022/08/26 00:59:17;;;;;;;;;;;;;;;19.62;83.47;101413.31;5050584;28;21773;-64
2022/08/26 01:01:43;;;;;;;12.50;8.55;;;;;;;19.58;85.15;101417.38;5066713;28;19927;-65
2022/08/26 01:04:10;;;;;;;19.17;10.43;;;;;;;19.52;86.29;101416.13;5068039;28;20040;-64
2022/08/26 01:06:36;;;;;;;20.77;11.15;;;;;;;19.53;85.82;101414.22;5065539;28;20459;-65
2022/08/26 01:09:02;;;;;;;16.73;8.88;;;;;;;19.54;84.97;101411.34;5064901;28;20052;-64
2022/08/26 01:11:27;;;;;;;12.15;9.55;;;;;;;19.53;86.19;101408.72;5067833;28;20032;-64
2022/08/26 01:13:57;;;;;;;14.13;9.82;;;;;;;19.57;85.42;101413.75;5066347;28;20084;-65
2022/08/26 01:16:26;;;;;;;15.10;9.02;;;;;;;19.58;85.39;101417.38;5046483;28;20464;-66
2022/08/26 01:18:55;;;;;;;15.48;8.82;;;;;;;19.59;85.14;101416.38;5047704;28;20137;-66
2022/08/26 01:21:32;;;;;;;19.77;10.63;;;;;;;19.60;85.12;101415.38;5063994;28;20064;-68
2022/08/26 01:23:58;;;;;;;15.80;8.38;;;;;;;19.60;85.69;101415.38;5064602;28;20051;-64
2022/08/26 01:26:31;;;;;;;15.27;8.88;;;;;;;19.64;84.71;101416.81;5067586;28;20448;-64
2022/08/26 01:28:57;;;;;;;;;;;;;;;19.69;83.36;101408.94;5067868;28;20478;-65
2022/08/26 01:31:26;;;;;;;13.95;8.05;;;;;;;19.63;85.27;101406.78;5065537;28;20443;-65
2022/08/26 01:34:19;;;;;;;14.25;7.90;;;;;;;19.62;84.60;101405.03;5067509;28;20518;-64
2022/08/26 01:36:46;;;;;;;14.15;6.82;;;;;;;19.63;85.00;101401.25;5066218;28;20098;-65
2022/08/26 01:39:11;;;;;;;11.80;6.43;;;;;;;19.65;85.26;101412.16;5065407;28;20064;-65
2022/08/26 01:41:38;;;;;;;12.77;6.05;;;;;;;19.65;84.54;101406.63;5066945;28;20055;-67
2022/08/26 01:44:07;;;;;;;11.07;6.07;;;;;;;19.65;84.57;101409.41;5065808;28;20438;-64
2022/08/26 01:46:33;;;;;;;11.20;5.80;;;;;;;19.64;84.17;101408.53;5057220;28;20132;-67
2022/08/26 01:49:03;;;;;;;11.30;5.28;;;;;;;19.66;84.55;101416.66;5066935;28;20099;-66
2022/08/26 01:51:30;;;;;;;10.20;5.55;;;;;;;19.67;83.75;101418.38;5065607;28;20119;-64
2022/08/26 01:53:56;;;;;;;11.50;4.75;;;;;;;19.71;83.00;101417.03;5065294;28;20028;-65
2022/08/26 01:56:23;;;;;;;11.10;4.70;;;;;;;19.72;83.27;101419.63;5066811;28;20036;-66
2022/08/26 01:58:56;;;;;;;9.00;4.05;;;;;;;19.73;83.11;101418.66;5066240;28;20021;-65
2022/08/26 02:01:24;;;;;;;6.68;3.90;;;;;;;19.72;83.68;101411.34;5064813;28;20078;-65
2022/08/26 02:04:16;;;;;;;6.30;3.92;;;;;;;19.71;83.03;101417.03;5067131;28;20048;-64
2022/08/26 02:06:42;;;;;;;8.82;4.05;;;;;;;19.68;83.76;101411.81;5065488;28;20051;-65
2022/08/26 02:09:09;;;;;;;9.45;3.65;;;;;;;19.64;83.96;101415.94;5064985;28;20458;-65
2022/08/26 02:11:35;;;;;;;5.78;2.90;;;;;;;19.64;83.99;101418.72;5066623;28;20040;-64
2022/08/26 02:14:26;;;;;;;6.53;3.00;;;;;;;19.66;83.16;101416.66;5066017;28;20726;-68
2022/08/26 02:16:54;;;;;;;7.60;3.10;;;;;;;19.67;83.04;101412.84;5045352;28;20048;-65
2022/08/26 02:19:27;;;;;;;8.40;2.90;;;;;;;19.69;82.83;101414.44;5046986;28;20025;-65
2022/08/26 02:21:54;;;;;;;10.98;2.83;;;;;;;19.68;83.69;101423.78;5050172;28;20040;-67
2022/08/26 02:24:24;;;;;;;10.45;2.67;;;;;;;19.69;82.62;101424.63;5065485;28;20032;-64
2022/08/26 02:26:50;;;;;;;9.48;2.60;;;;;;;19.64;82.94;101424.25;5065797;28;20036;-65
2022/08/26 02:29:27;;;;;;;6.65;2.60;;;;;;;19.65;82.81;101435.13;5065593;28;20036;-64
2022/08/26 02:31:54;;;;;;;8.30;2.80;;;;;;;19.64;82.54;101438.91;5065458;28;20074;-65
2022/08/26 02:34:29;;;;;;;5.30;2.35;;;;;;;19.64;83.20;101443.56;5065897;28;20094;-66
2022/08/26 02:36:56;;;;;;;7.55;2.55;;;;;;;19.61;83.38;101440.06;5065822;28;20040;-66
2022/08/26 02:39:22;;;;;;;7.40;2.75;;;;;;;19.61;82.67;101437.31;5064686;28;20087;-64
2022/08/26 02:41:48;;;;;;;8.73;2.53;;;;;;;19.59;82.43;101439.34;5066733;28;20467;-65
2022/08/26 02:44:13;;;;;;;7.10;2.50;;;;;;;19.52;82.86;101437.34;5064534;28;20029;-64
2022/08/26 02:46:39;;;;;;;11.65;2.65;;;;;;;19.50;82.23;101434.75;5065141;28;20641;-65
2022/08/26 02:49:04;;;;;;;7.18;2.10;;;;;;;19.52;81.81;101437.34;5066160;28;20368;-65
2022/08/26 02:51:30;;;;;;;7.43;2.67;;;;;;;19.51;82.76;101438.38;5065800;28;20067;-64
2022/08/26 02:53:55;;;;;;;8.23;2.50;;;;;;;19.46;83.86;101435.22;5061716;28;20029;-65
2022/08/26 02:56:21;;;;;;;5.03;2.08;;;;;;;19.38;83.25;101436.84;5065953;28;20040;-64
2022/08/26 02:58:47;;;;;;;8.00;2.30;;;;;;;19.36;83.19;101432.50;5063955;28;20025;-64
2022/08/26 03:01:24;;;;;;;7.05;2.45;;;;;;;19.33;83.41;101438.31;5063722;28;20025;-64
2022/08/26 03:03:50;;;;;;;12.32;2.50;;;;;;;19.32;83.03;101433.84;5066298;28;20044;-64
2022/08/26 03:06:15;;;;;;;7.15;2.50;;;;;;;19.31;83.85;101437.63;5066380;28;20052;-66
2022/08/26 03:08:41;;;;;;;7.35;2.35;;;;;;;19.29;83.29;101432.25;5064235;28;20063;-64
2022/08/26 03:11:07;;;;;;;6.57;2.90;;;;;;;19.26;84.17;101435.31;5064390;28;20695;-64
2022/08/26 03:13:33;;;;;;;6.55;2.35;;;;;;;19.25;83.46;101429.94;5065786;28;20041;-65
2022/08/26 03:16:00;;;;;;;7.97;2.38;;;;;;;19.22;84.01;101427.50;5063532;28;20482;-65
2022/08/26 03:18:25;;;;;;;10.90;2.30;;;;;;;19.21;84.67;101431.25;5064267;28;20027;-65
2022/08/26 03:20:51;;;;;;;6.38;2.38;;;;;;;19.17;84.28;101425.22;5065740;28;20033;-65
2022/08/26 03:23:16;;;;;;;8.40;2.22;;;;;;;19.20;83.63;101426.78;5063819;28;20097;-63
2022/08/26 03:25:41;;;;;;;8.40;1.90;;;;;;;19.20;84.38;101424.88;5064398;28;20040;-64
2022/08/26 03:28:07;;;;;;;6.50;2.03;;;;;;;19.23;83.55;101426.47;5064352;28;20086;-65
2022/08/26 03:30:38;;;;;;;5.30;2.20;;;;;;;19.24;84.35;101436.47;5066035;28;20048;-64
2022/08/26 03:33:05;;;;;;;5.20;2.40;;;;;;;19.23;84.07;101437.50;5069840;28;20036;-64
2022/08/26 03:35:32;;;;;;;4.93;2.10;;;;;;;19.27;83.63;101439.81;5069803;28;20488;-65
2022/08/26 03:37:58;;;;;;;9.20;2.63;;;;;;;19.33;83.45;101432.81;5067300;28;20032;-65
2022/08/26 03:40:24;;;;;;;5.20;2.00;;;;;;;19.34;83.63;101432.63;5068483;28;20036;-65
2022/08/26 03:42:50;;;;;;;5.82;1.95;;;;;;;19.37;83.91;101440.63;5070013;28;20494;-65
2022/08/26 03:45:16;;;;;;;7.78;2.15;;;;;;;19.35;83.77;101436.25;5068734;28;20233;-67
2022/08/26 03:47:43;;;;;;;5.70;1.92;;;;;;;19.36;83.08;101438.03;5068815;28;20391;-64
2022/08/26 03:50:11;;;;;;;4.82;2.05;;;;;;;19.38;83.61;101442.34;5069431;28;20044;-64
2022/08/26 03:52:36;;;;;;;8.70;2.08;;;;;;;19.40;83.30;101433.03;5068211;28;20105;-64
2022/08/26 03:55:04;;;;;;;8.60;2.42;;;;;;;19.41;83.63;101434.81;5063208;28;20044;-64
2022/08/26 03:57:30;;;;;;;7.47;2.10;;;;;;;19.37;83.84;101437.88;5049114;28;20400;-65
2022/08/26 03:59:55;;;;;;;5.90;2.42;;;;;;;19.35;83.26;101441.78;5054937;28;20044;-65
2022/08/26 04:02:21;;;;;;;5.88;2.10;;;;;;;19.35;82.76;101442.69;5067578;28;20102;-68
2022/08/26 04:04:46;;;;;;;8.43;2.40;;;;;;;19.37;82.77;101442.50;5069533;28;20032;-64
2022/08/26 04:07:11;;;;;;;7.47;2.70;;;;;;;19.34;83.96;101442.81;5067176;28;20525;-64
2022/08/26 04:09:37;;;;;;;6.47;2.33;;;;;;;19.31;83.29;101441.25;5067484;28;20597;-65
2022/08/26 04:12:03;;;;;;;4.43;2.15;;;;;;;19.27;84.21;101439.81;5068868;28;20064;-64
2022/08/26 04:14:28;;;;;;;8.88;2.40;;;;;;;19.25;84.52;101439.06;5066528;28;20403;-66
2022/08/26 04:16:54;;;;;;;11.25;2.92;;;;;;;19.19;84.39;101442.47;5067514;28;20045;-65
2022/08/26 04:19:21;;;;;;;7.68;2.45;;;;;;;19.19;84.66;101441.59;5069304;28;20025;-65
2022/08/26 04:21:49;;;;;;;7.80;2.45;;;;;;;19.20;83.47;101435.03;5067411;28;20041;-64
2022/08/26 04:24:15;;;;;;;9.07;2.78;;;;;;;19.18;84.19;101437.09;5066818;28;20020;-64
2022/08/26 04:26:41;;;;;;;4.65;2.15;;;;;;;19.19;83.78;101439.69;5068390;28;20119;-66
2022/08/26 04:29:13;;;;;;;8.75;2.78;;;;;;;19.18;84.91;101434.34;5066679;28;20028;-69
2022/08/26 04:31:40;;;;;;;7.60;2.35;;;;;;;19.20;83.80;101435.91;5066090;28;20036;-64
2022/08/26 04:34:06;;;;;;;5.70;2.60;;;;;;;19.20;84.24;101440.56;5068387;28;20024;-65
2022/08/26 04:36:33;;;;;;;6.25;2.28;;;;;;;19.16;84.66;101434.47;5068068;28;20094;-65
2022/08/26 04:39:00;;;;;;;7.65;2.55;;;;;;;19.16;84.38;101431.72;5065398;28;20040;-65
2022/08/26 04:41:26;;;;;;;11.38;3.15;;;;;;;19.17;85.07;101439.00;5065965;28;20111;-66
2022/08/26 04:43:52;;;;;;;9.30;3.08;;;;;;;19.15;85.27;101434.63;5067224;28;20040;-64
2022/08/26 04:46:21;;;;;;;6.97;2.50;;;;;;;19.13;85.64;101443.06;5066362;28;20052;-64
2022/08/26 04:48:49;;;;;;;6.35;3.13;;;;;;;19.15;83.97;101446.53;5067136;28;20419;-65
2022/08/26 04:51:15;;;;;;;10.95;3.33;;;;;;;19.14;83.87;101438.44;5066694;28;20032;-65
2022/08/26 04:53:40;;;;;;;8.15;3.03;;;;;;;19.16;85.00;101450.16;5065905;28;20523;-65
2022/08/26 04:56:07;;;;;;;6.20;2.88;;;;;;;19.15;85.17;101446.53;5068035;28;20124;-65
2022/08/26 04:58:33;;;;;;;5.72;2.70;;;;;;;19.16;84.80;101444.66;5068084;28;20748;-64
2022/08/26 05:00:58;;;;;;;8.63;2.25;;;;;;;19.21;83.30;101445.06;5063285;28;20111;-64
2022/08/26 05:03:26;;;;;;;5.72;2.65;;;;;;;19.27;83.54;101441.72;5066571;28;20056;-64
2022/08/26 05:05:52;;;;;;;9.07;3.10;;;;;;;19.27;84.58;101456.38;5062263;28;20036;-65
2022/08/26 05:08:21;;;;;;;8.57;2.58;;;;;;;19.27;84.94;101456.38;5056328;28;20127;-64
2022/08/26 05:10:50;;;;;;;6.35;2.30;;;;;;;19.27;84.87;101449.97;5052545;28;20533;-67
2022/08/26 05:13:18;;;;;;;8.68;2.35;;;;;;;19.26;84.59;101446.34;5056160;28;20024;-65
2022/08/26 05:15:44;;;;;;;10.73;2.67;;;;;;;19.27;84.93;101450.84;5064469;28;20481;-66
2022/08/26 05:18:12;;;;;;;9.00;2.70;;;;;;;19.27;85.29;101455.50;5067230;28;20382;-65
2022/08/26 05:20:40;;;;;;;5.97;2.80;;;;;;;19.19;85.30;101453.50;5065022;28;20048;-65
2022/08/26 05:23:06;;;;;;;8.73;2.28;;;;;;;19.23;83.66;101451.31;5066250;28;20064;-65
2022/08/26 05:25:35;;;;;;;9.80;2.72;;;;;;;19.25;84.69;101450.13;5064666;28;20102;-65
2022/08/26 05:28:01;;;;;;;6.57;3.08;;;;;;;19.25;85.05;101450.13;5051793;28;20044;-65
2022/08/26 05:30:30;;;;;;;3.42;2.10;;;;;;;19.24;85.09;101456.66;5056174;28;20059;-67
2022/08/26 05:32:55;;;;;;;5.95;2.30;;;;;;;19.27;84.54;101449.97;5048182;28;20128;-65
2022/08/26 05:35:21;;;;;;;7.38;2.40;;;;;;;19.29;85.07;101450.69;5067511;28;20486;-65
2022/08/26 05:37:47;;;;;;;7.57;2.10;;;;;;;19.34;84.45;101451.94;5065405;28;20100;-64
2022/08/26 05:40:13;;;;;;;5.60;2.33;;;;;;;19.34;84.03;101457.47;5066055;28;20032;-65
2022/08/26 05:42:39;;;;;;;5.65;2.38;;;;;;;19.37;83.86;101456.31;5067027;28;20047;-65
2022/08/26 05:45:04;;;;;;;8.40;2.45;;;;;;;19.41;84.61;101468.78;5065806;28;20025;-65
2022/08/26 05:47:30;;;;;;;5.57;2.42;;;;;;;19.40;84.22;101468.91;5065724;28;20033;-65
2022/08/26 05:49:55;;;;;;;5.20;2.33;;;;;;;19.41;84.47;101470.69;5065813;28;20148;-64
2022/08/26 05:52:20;;;;;;;7.55;2.13;;;;;;;19.44;84.43;101465.69;5063615;28;20033;-68
2022/08/26 05:54:46;;;;;;;17.02;2.50;;;;;;;19.51;83.45;101472.34;5065881;28;20036;-67
2022/08/26 05:57:12;;;;;;;11.23;2.30;;;;;;;19.54;84.28;101476.72;5066805;28;20056;-66
2022/08/26 05:59:38;;;;;;;7.65;2.08;;;;;;;19.52;83.73;101482.38;5065565;28;20043;-66
2022/08/26 06:02:04;;;;;;;7.18;1.95;;;;;;;19.58;83.71;101486.41;5065292;28;20048;-65
2022/08/26 06:04:30;;;;;;;8.38;1.83;;;;;;;19.67;83.29;101491.03;5066804;28;20033;-65
2022/08/26 06:06:56;;;;;;;5.07;1.85;;;;;;;19.74;82.80;101491.28;5066206;28;20393;-66
2022/08/26 06:09:22;;;;;;;9.13;2.40;;;;;;;19.74;82.57;101499.56;5065301;28;20028;-66
2022/08/26 06:11:47;;;;;;;3.85;1.55;;;;;;;19.72;83.05;101498.84;5067225;28;20216;-66
2022/08/26 06:14:13;;;;;;;6.60;1.50;;;;;;;19.72;83.23;101504.38;5065419;28;20033;-65
2022/08/26 06:16:42;;;;;;;5.47;1.40;;;;;;;19.71;82.55;101503.50;5065038;28;20123;-64
2022/08/26 06:19:09;;;;;;;6.60;1.45;;;;;;;19.75;82.42;101510.47;5066521;28;20031;-64
2022/08/26 06:21:38;;;;;;;5.25;1.58;;;;;;;19.78;82.54;101504.63;5065801;28;20047;-64
2022/08/26 06:26:53;;;;;;;6.38;1.40;;;;;;;19.84;82.37;101508.66;5066861;28;20036;-68
2022/08/26 06:29:21;;;;;;;7.18;1.40;;;;;;;19.95;80.75;101513.09;5064555;28;20102;-64
2022/08/26 06:31:47;;;;;;;5.97;1.83;;;;;;;19.92;81.08;101517.03;5065995;28;20064;-65
2022/08/26 06:34:13;;;;;;;6.75;1.73;;;;;;;19.95;81.10;101513.94;5066243;28;20068;-63
2022/08/26 06:36:41;;;;;;;6.70;1.58;;;;;;;19.95;81.17;101516.72;5065926;28;20029;-65
2022/08/26 06:39:09;;;;;;;6.35;1.65;;;;;;;19.98;80.82;101512.78;5064441;28;20451;-65
2022/08/26 06:41:36;;;;;;;5.00;1.40;;;;;;;19.99;80.88;101520.03;5065757;28;20041;-65
2022/08/26 06:44:04;;;;;;;2.38;1.40;;;;;;;20.02;80.52;101526.13;5066085;28;20120;-64
2022/08/26 06:46:30;;;;;;;3.70;1.27;;;;;;;20.07;79.83;101521.00;5063726;28;20032;-64
2022/08/26 06:48:59;;;;;;;8.55;1.55;;;;;;;20.07;79.83;101523.75;5066029;28;20101;-68
2022/08/26 06:51:36;;;;;;;5.05;1.60;;;;;;;20.13;80.72;101519.50;5065934;28;20123;-65
2022/08/26 06:54:02;;;;;;;6.72;1.58;;;;;;;20.19;79.96;101518.00;5045817;28;20036;-66
2022/08/26 06:56:40;;;;;;;3.67;1.45;;;;;;;20.23;79.74;101519.41;5065981;28;20024;-65
2022/08/26 06:59:07;;;;;;;6.88;1.40;;;;;;;20.21;79.25;101522.34;5065891;28;20399;-65
2022/08/26 07:01:36;;;;;;;5.53;1.50;;;;;;;20.20;79.42;101520.63;5061891;28;20041;-64
2022/08/26 07:04:04;;;;;;;3.63;1.60;;;;;;;20.25;79.54;101525.69;5065137;28;20138;-65
2022/08/26 07:06:30;;;;;;;7.10;1.25;;;;;;;20.33;79.83;101526.63;5065688;28;20349;-65
2022/08/26 07:09:03;;;;;;;5.28;1.33;;;;;;;20.37;79.00;101524.41;5062460;28;20135;-65
2022/08/26 07:11:31;;;;;;;8.23;1.70;;;;;;;20.38;79.07;101528.91;5066300;28;20622;-64
2022/08/26 07:13:57;;;;;;;6.28;1.40;;;;;;;20.39;79.18;101528.75;5065785;28;20105;-65
2022/08/26 07:16:24;;;;;;;8.48;1.58;;;;;;;20.50;78.83;101526.78;5063569;28;20046;-65
2022/08/26 07:18:51;;;;;;;4.40;1.20;;;;;;;20.51;78.61;101521.09;5066286;28;20020;-66
2022/08/26 07:21:17;;;;;;;3.53;1.35;;;;;;;20.61;78.17;101519.13;5065840;28;20047;-66
2022/08/26 07:23:44;;;;;;;5.32;1.48;;;;;;;20.64;78.01;101524.31;5062501;28;20484;-66
2022/08/26 07:26:15;;;;;;;4.35;1.60;;;;;;;20.59;77.84;101528.59;5064031;28;20135;-66
2022/08/26 07:28:41;;;;;;;6.63;1.45;;;;;;;20.57;77.54;101531.53;5064468;28;20416;-65
2022/08/26 07:31:09;;;;;;;7.65;1.73;;;;;;;20.59;77.29;101537.75;5063156;28;20033;-65
2022/08/26 07:33:36;;;;;;;7.25;1.55;;;;;;;20.61;77.86;101532.97;5064189;28;20080;-65
2022/08/26 07:36:02;;;;;;;6.35;1.50;;;;;;;20.69;77.64;101537.66;5065375;28;20036;-65
2022/08/26 07:38:27;;;;;;;6.32;1.40;;;;;;;20.83;77.82;101536.22;5063409;28;20123;-64
2022/08/26 07:40:53;;;;;;;4.97;1.67;;;;;;;20.88;76.51;101545.78;5064599;28;20032;-64
2022/08/26 07:43:19;;;;;;;6.00;1.50;;;;;;;20.96;76.70;101538.56;5065986;28;20536;-64
2022/08/26 07:45:44;;;;;;;7.32;1.75;;;;;;;21.00;75.89;101549.16;5063091;28;20039;-65
2022/08/26 07:48:10;;;;;;;5.53;1.52;;;;;;;21.06;75.67;101550.41;5065159;28;20415;-65
2022/08/26 07:50:36;;;;;;;7.53;1.52;;;;;;;21.12;74.85;101555.28;5065386;28;20111;-64
2022/08/26 07:53:02;;;;;;;6.97;1.63;;;;;;;21.14;75.37;101550.47;5064256;28;20371;-65
2022/08/26 07:55:28;;;;;;;5.07;1.70;;;;;;;21.13;74.66;101551.50;5059681;28;20488;-66
2022/08/26 07:57:54;;;;;;;7.72;1.83;;;;;;;21.19;75.50;101549.97;5045212;28;20389;-65
2022/08/26 08:00:20;;;;;;;4.00;1.50;;;;;;;21.25;75.02;101557.63;5053832;28;20032;-63
2022/08/26 08:02:46;;;;;;;6.75;1.75;;;;;;;21.22;74.50;101550.53;5064513;28;20051;-64
2022/08/26 08:05:15;;;;;;;5.38;1.70;;;;;;;21.27;74.50;101561.09;5063785;28;20036;-64
2022/08/26 08:07:43;;;;;;;6.00;1.40;;;;;;;21.43;74.97;101555.69;5063162;28;20618;-64
2022/08/26 08:10:12;;;;;;;2.65;1.33;;;;;;;21.57;74.21;101555.06;5064032;28;20039;-66
2022/08/26 08:12:39;;;;;;;3.97;1.52;;;;;;;21.78;73.49;101557.41;5065270;28;20064;-64
2022/08/26 08:15:05;;;;;;;5.95;1.52;;;;;;;21.81;72.25;101567.28;5064114;28;20086;-65
2022/08/26 08:17:33;;;;;;;4.18;1.20;;;;;;;21.84;72.42;101551.19;5067344;28;20028;-65
2022/08/26 08:19:58;;;;;;;6.60;1.60;;;;;;;21.80;71.78;101560.00;5068743;28;20040;-65
2022/08/26 08:22:24;;;;;;;5.45;1.45;;;;;;;21.77;72.21;101558.44;5067296;28;20407;-68
2022/08/26 08:24:49;;;;;;;3.15;1.10;;;;;;;21.81;71.71;101558.97;5062743;28;20221;-65
2022/08/26 08:27:15;;;;;;;5.20;1.30;;;;;;;21.90;70.94;101550.53;5048714;28;20175;-65
2022/08/26 08:29:40;;;;;;;5.38;1.10;;;;;;;21.95;71.10;101555.56;5050866;28;20119;-65
2022/08/26 08:32:05;;;;;;;5.22;1.40;;;;;;;22.00;71.50;101568.91;5066151;28;20077;-65
2022/08/26 08:34:31;;;;;;;4.00;1.33;;;;;;;21.93;70.73;101568.72;5068452;28;20067;-64
2022/08/26 08:36:57;;;;;;;4.95;1.23;;;;;;;21.79;70.46;101564.69;5066635;28;20444;-65
2022/08/26 08:39:23;;;;;;;4.85;1.25;;;;;;;21.75;70.41;101571.59;5067105;28;20392;-65
2022/08/26 08:42:10;;;;;;;8.55;1.35;;;;;;;21.69;71.38;101563.97;5068668;28;20045;-65
2022/08/26 08:44:40;;;;;;;4.20;1.05;;;;;;;21.60;71.96;101564.94;5067022;28;20131;-65
2022/08/26 08:47:36;;;;;;;5.07;1.27;;;;;;;21.68;71.46;101562.19;5067048;28;20036;-68
2022/08/26 08:50:16;;;;;;;5.45;1.17;;;;;;;21.73;71.25;101561.69;5067907;28;20134;-65
2022/08/26 08:52:46;;;;;;;4.00;1.02;;;;;;;21.79;70.68;101553.59;5065812;28;20784;-65
2022/08/26 08:55:14;;;;;;;7.82;1.63;;;;;;;21.88;71.28;101565.59;5067095;28;20093;-65
2022/08/26 08:58:04;;;;;;;4.65;1.15;;;;;;;22.00;70.87;101560.59;5068135;28;20036;-65
2022/08/26 09:00:41;;;;;;;5.93;1.20;;;;;;;22.03;69.79;101558.38;5066422;28;20090;-68
2022/08/26 09:03:46;;;;;;;5.70;1.63;;;;;;;21.93;70.26;101567.88;5047950;28;20049;-65
2022/08/26 09:06:17;;;;;;;9.93;1.52;;;;;;;21.89;70.85;101572.88;5054174;28;20589;-65
2022/08/26 09:08:45;;;;;;;10.02;1.35;;;;;;;21.91;70.21;101573.56;5066441;28;20025;-65
2022/08/26 09:11:12;;;;;;;4.88;1.30;;;;;;;22.01;70.67;101565.09;5067658;28;20438;-67
2022/08/26 09:13:40;;;;;;;6.55;1.20;;;;;;;22.02;69.58;101564.09;5067672;28;20044;-65
2022/08/26 09:16:09;;;;;;;5.85;1.08;;;;;;;21.98;69.55;101571.84;5065136;28;20038;-66
2022/08/26 09:18:39;;;;;;;4.20;1.27;;;;;;;22.08;69.60;101572.56;5067739;28;20067;-68
2022/08/26 09:21:08;;;;;;;6.97;1.45;;;;;;;22.08;68.60;101567.03;5066297;28;20068;-66
2022/08/26 09:23:37;;;;;;;6.97;1.80;;;;;;;22.08;68.44;101567.03;5066542;28;20124;-65
2022/08/26 09:26:14;;;;;;;5.60;1.35;;;;;;;22.12;68.25;101565.69;5066171;28;20462;-65
2022/08/26 09:28:44;;;;;;;4.90;1.30;;;;;;;22.10;68.21;101567.75;5065465;28;20082;-65
2022/08/26 09:31:39;;;;;;;6.82;1.40;;;;;;;22.12;68.16;101575.91;5065236;28;20031;-65
2022/08/26 09:34:10;;;;;;;5.65;1.20;;;;;;;22.13;68.55;101569.34;5067456;28;20044;-65
2022/08/26 09:36:39;;;;;;;4.85;1.20;;;;;;;22.01;68.61;101581.72;5067061;28;20399;-65
2022/08/26 09:39:26;;;;;;;5.13;1.08;;;;;;;22.03;68.88;101580.53;5064340;28;20028;-65
2022/08/26 09:42:11;;;;;;;9.35;1.50;;;;;;;22.05;68.13;101583.13;5067131;28;20440;-64
2022/08/26 09:45:09;;;;;;;6.53;1.80;;;;;;;22.10;68.44;101589.03;5066196;28;20074;-64
2022/08/26 09:47:46;;;;;;;4.78;1.00;;;;;;;22.12;69.16;101585.09;5065785;28;20207;-67
2022/08/26 09:50:32;;;;;;;6.00;1.20;;;;;;;22.12;68.51;101585.09;5067222;28;20067;-65
2022/08/26 09:53:19;;;;;;;3.97;1.35;;;;;;;22.13;67.99;101577.66;5065895;28;20194;-64
2022/08/26 09:55:46;;;;;;;9.77;1.48;;;;;;;22.06;69.03;101584.88;5065775;28;20036;-65
2022/08/26 09:58:14;;;;;;;7.20;1.60;;;;;;;21.98;69.77;101579.31;5065611;28;20047;-65
2022/08/26 10:00:52;;;;;;;7.18;1.52;;;;;;;21.90;69.56;101581.00;5064762;28;20128;-64
2022/08/26 10:03:26;;;;;;;3.65;1.35;;;;;;;21.94;69.19;101584.31;5067098;28;20403;-64
2022/08/26 10:06:01;;;;;;;8.40;1.30;;;;;;;21.89;69.35;101587.59;5066627;28;20044;-65
2022/08/26 10:08:33;;;;;;;3.33;1.30;;;;;;;21.84;68.49;101587.22;5064755;28;20368;-65
2022/08/26 10:11:03;;;;;;;6.57;1.40;;;;;;;21.76;69.03;101591.84;5065850;28;20404;-64
2022/08/26 10:13:41;;;;;;;6.50;1.45;;;;;;;21.73;69.48;101593.06;5066556;28;20046;-65
2022/08/26 10:16:19;;;;;;;6.97;1.75;;;;;;;21.67;69.37;101587.31;5059269;28;20384;-64
2022/08/26 10:19:01;;;;;;;6.88;1.40;;;;;;;21.56;69.36;101594.00;5066330;28;20561;-65
2022/08/26 10:21:48;;;;;;;9.02;1.63;;;;;;;21.49;70.41;101599.31;5064592;28;20055;-66
2022/08/26 10:24:21;;;;;;;10.23;1.73;;;;;;;21.51;69.94;101590.88;5064492;28;20056;-66
2022/08/26 10:27:17;;;;;;;3.67;1.35;;;;;;;21.62;69.41;101593.34;5066677;28;20037;-64
2022/08/26 10:29:47;;;;;;;5.43;1.23;;;;;;;21.57;69.66;101585.53;5063835;28;20146;-64
2022/08/26 10:32:26;;;;;;;6.05;1.50;;;;;;;21.49;70.15;101590.16;5065055;28;20044;-65
2022/08/26 10:34:52;;;;;;;7.30;1.45;;;;;;;21.35;69.18;101591.63;5066181;28;20059;-65
2022/08/26 10:37:21;;;;;;;5.50;1.20;;;;;;;21.32;70.36;101589.19;5064540;28;20575;-64
2022/08/26 10:39:55;;;;;;;5.57;1.20;;;;;;;21.30;71.03;101582.91;5064093;28;20044;-65
2022/08/26 10:42:28;;;;;;;6.45;1.25;;;;;;;21.31;70.25;101582.78;5054477;28;20135;-68
2022/08/26 10:45:01;;;;;;;7.75;1.92;;;;;;;21.30;70.85;101582.91;5057046;28;20037;-65
2022/08/26 10:47:52;;;;;;;;;;;;;;;21.44;70.27;101587.88;5062786;28;20074;-66
2022/08/26 10:50:20;;;;;;;6.88;1.35;;;;;;;21.45;69.99;101577.66;5054387;28;19931;-65
2022/08/26 10:53:20;;;;;;;5.30;1.13;;;;;;;21.48;70.06;101580.09;5053639;28;20045;-65
2022/08/26 10:56:06;;;;;;;3.70;1.20;;;;;;;21.53;69.99;101583.25;5062025;28;20052;-65
2022/08/26 10:58:47;;;;;;;7.03;1.40;;;;;;;21.39;70.14;101581.94;5065882;28;20055;-64
2022/08/26 11:01:42;;;;;;;8.55;1.23;;;;;;;21.49;70.01;101582.69;5063330;28;20032;-65
2022/08/26 11:04:08;;;;;;;5.53;1.20;;;;;;;21.65;69.13;101584.72;5059036;28;20403;-64
2022/08/26 11:06:34;;;;;;;5.47;1.25;;;;;;;21.68;68.25;101589.03;5064997;28;20044;-67
2022/08/26 11:09:05;;;;;;;3.33;1.45;;;;;;;21.65;68.51;101591.13;5061355;28;20029;-68
2022/08/26 11:11:41;;;;;;;9.45;1.80;;;;;;;21.60;68.36;101603.72;5061702;28;20025;-65
2022/08/26 11:14:29;;;;;;;4.10;1.50;;;;;;;21.50;69.13;101602.97;5061803;28;20024;-67
2022/08/26 11:16:58;;;;;;;6.13;1.33;;;;;;;21.37;69.34;101589.56;5056195;28;20044;-64
2022/08/26 11:19:40;;;;;;;10.95;1.35;;;;;;;21.36;69.38;101590.59;5052358;28;20048;-64
2022/08/26 11:22:23;;;;;;;7.73;1.50;;;;;;;21.35;70.10;101584.19;5055484;28;20587;-65
2022/08/26 11:24:51;;;;;;;5.30;1.25;;;;;;;21.48;70.15;101580.09;5058563;28;20135;-64
2022/08/26 11:27:23;;;;;;;2.97;1.05;;;;;;;21.63;69.75;101582.09;5059129;28;20063;-65
2022/08/26 11:29:56;;;;;;;;;;;;;;;21.78;69.48;101581.50;5059198;28;20059;-64
2022/08/26 11:32:25;;;;;;;;;;;;;;;21.81;69.05;101589.44;5061861;28;20355;-66
2022/08/26 11:34:58;;;;;;;4.85;1.50;;;;;;;21.70;68.28;101587.84;5061474;28;20340;-67
2022/08/26 11:37:28;;;;;;;;;;;;;;;21.78;69.26;101589.81;5059345;28;20044;-66